Flight Track Log - Related Links

Times and Time Zones

All times are in EDT time to prevent confusion due to time zone crossing. See the SWA1075 flight status page for this flight to view local times or setup timezone preferences in your user account.

Time Position Orientation Groundspeed Altitude Reporting Facility
EDT Latitude Longitude Course Direction KTS MPH feet Rate Location/Type
Sat 10:07:34 AM 40.7711 -111.9744 246° West 167 192 5,000  Level Salt Lake Center
Sat 10:08:47 AM 40.7489 -112.0583 251° West 225 259 6,800 1,282 Climbing Salt Lake Center
Sat 10:09:17 AM 40.7586 -112.0919 291° West 258 297 7,200 2,328 Climbing Salt Lake Center
Sat 10:09:54 AM 40.7811 -112.1578 294° West 287 330 9,400 2,537 Climbing Salt Lake Center
Sat 10:11:20 AM 40.8297 -112.3033 294° West 345 397 12,400 2,653 Climbing Salt Lake Center
Sat 10:12:21 AM 40.8328 -112.4353 272° West 362 417 15,900 3,073 Climbing Salt Lake Center
Sat 10:13:00 AM 40.8442 -112.7340 246° West  Level FlightAware Approximate
Sat 10:13:23 AM 40.8231 -112.5722 265° West 377 434 18,700  Level Salt Lake Center
Sat 10:14:24 AM 40.8119 -112.7156 264° West 392 451 21,600 2,803 Climbing Salt Lake Center
Sat 10:15:25 AM 40.7972 -112.8947 264° West 410 472 24,400 2,537 Climbing Salt Lake Center
Sat 10:16:27 AM 40.7847 -113.0494 264° West 423 487 26,800 2,244 Climbing Salt Lake Center
Sat 10:17:28 AM 40.7722 -113.2039 264° West 425 489 29,000 2,195 Climbing Salt Lake Center
Sat 10:18:30 AM 40.7617 -113.3583 265° West 424 488 31,300 2,293 Climbing Salt Lake Center
Sat 10:19:31 AM 40.7222 -113.4997 250° West 414 476 33,700 2,146 Climbing Salt Lake Center
Sat 10:20:33 AM 40.6658 -113.6303 240° Southwest 410 472 35,700 1,756 Climbing Salt Lake Center
Sat 10:21:34 AM 40.6089 -113.7583 240° Southwest 407 468 37,300 1,122 Climbing Salt Lake Center
Sat 10:22:36 AM 40.5522 -113.8844 239° Southwest 404 465 38,000 341 Climbing Salt Lake Center
Sat 10:23:37 AM 40.4839 -114.0369 240° Southwest 404 465 38,000 390 Level Salt Lake Center
Sat 10:24:39 AM 40.4264 -114.1631 239° Southwest 404 465 38,800 968 Climbing Salt Lake Center
Sat 10:25:41 AM 40.3711 -114.2875 240° Southwest 399 459 40,000 585 Climbing Salt Lake Center
Sat 10:26:42 AM 40.3150 -114.4119 239° Southwest 396 456 40,000  Level Salt Lake Center
Sat 10:27:44 AM 40.2572 -114.5353 238° Southwest 398 458 40,000  Level Salt Lake Center
Sat 10:28:45 AM 40.2014 -114.6583 239° Southwest 395 455 40,000  Level Salt Lake Center
Sat 10:29:47 AM 40.1419 -114.7886 239° Southwest 397 457 40,000  Level Salt Lake Center
Sat 10:30:49 AM 40.0778 -114.9269 239° Southwest 397 457 40,000  Level Salt Lake Center
Sat 10:31:51 AM 40.0236 -115.0442 239° Southwest 396 456 40,000  Level Salt Lake Center
Sat 10:32:52 AM 39.9681 -115.1633 239° Southwest 398 458 40,000  Level Salt Lake Center
Sat 10:33:54 AM 39.9036 -115.2997 238° Southwest 397 457 40,000  Level Salt Lake Center
Sat 10:34:56 AM 39.8483 -115.4189 239° Southwest 400 460 40,000  Level Salt Lake Center
Sat 10:35:58 AM 39.7806 -115.5597 238° Southwest 406 467 40,000  Level Salt Lake Center
Sat 10:37:00 AM 39.7233 -115.6789 238° Southwest 404 465 40,000  Level Salt Lake Center
Sat 10:38:01 AM 39.6581 -115.8167 238° Southwest 401 461 40,000  Level Salt Lake Center
Sat 10:39:03 AM 39.6025 -115.9350 239° Southwest 399 459 40,000  Level Salt Lake Center
Sat 10:40:05 AM 39.5447 -116.0539 238° Southwest 403 464 40,000  Level Salt Lake Center
Sat 10:41:07 AM 39.4786 -116.1908 238° Southwest 400 460 40,000  Level Salt Lake Center
Sat 10:42:09 AM 39.4219 -116.3092 238° Southwest 401 461 40,000  Level Salt Lake Center
Sat 10:43:11 AM 39.3553 -116.4472 238° Southwest 403 464 40,000  Level Salt Lake Center
Sat 10:44:13 AM 39.2975 -116.5647 238° Southwest 403 464 40,000  Level Salt Lake Center
Sat 10:45:15 AM 39.2306 -116.7006 238° Southwest 402 463 40,000  Level Salt Lake Center
Sat 10:46:17 AM 39.1733 -116.8186 238° Southwest 404 465 40,000  Level Salt Lake Center
Sat 10:47:00 AM 39.1236 -116.9200 238° Southwest 405 466 40,000  Level Oakland Center
Sat 10:48:01 AM 39.0636 -117.0408 237° Southwest 404 465 40,000  Level Oakland Center
Sat 10:49:02 AM 39.0053 -117.1603 238° Southwest 405 466 40,000  Level Oakland Center
Sat 10:50:03 AM 38.9447 -117.2817 237° Southwest 403 464 40,000  Level Oakland Center
Sat 10:51:04 AM 38.8828 -117.4050 237° Southwest 404 465 40,000  Level Oakland Center
Sat 10:52:05 AM 38.8219 -117.5261 237° Southwest 404 465 40,000  Level Oakland Center
Sat 10:53:06 AM 38.7617 -117.6456 237° Southwest 402 463 40,000  Level Oakland Center
Sat 10:54:08 AM 38.7000 -117.7672 237° Southwest 404 465 40,000  Level Oakland Center
Sat 10:55:09 AM 38.6403 -117.8850 237° Southwest 401 461 40,000  Level Oakland Center
Sat 10:56:10 AM 38.5789 -118.0047 237° Southwest 401 461 40,000  Level Oakland Center
Sat 10:57:11 AM 38.5222 -118.1347 241° Southwest 408 470 40,000  Level Oakland Center
Sat 10:58:12 AM 38.4686 -118.2619 242° Southwest 408 470 40,000  Level Oakland Center
Sat 10:59:13 AM 38.4144 -118.3894 242° Southwest 407 468 40,000  Level Oakland Center
Sat 11:00:14 AM 38.3489 -118.5417 241° Southwest 408 470 40,000  Level Oakland Center
Sat 11:01:15 AM 38.2942 -118.6686 241° Southwest 408 470 40,000  Level Oakland Center
Sat 11:02:16 AM 38.2406 -118.7967 242° Southwest 408 470 40,000  Level Oakland Center
Sat 11:03:17 AM 38.1847 -118.9239 241° Southwest 410 472 40,000  Level Oakland Center
Sat 11:04:18 AM 38.1447 -119.0594 249° West 414 476 40,000  Level Oakland Center
Sat 11:05:19 AM 38.1228 -119.1894 258° West 417 480 40,000  Level Oakland Center
Sat 11:06:20 AM 38.0992 -119.3322 258° West 415 478 40,000  Level Oakland Center
Sat 11:07:22 AM 38.0700 -119.5053 258° West 417 480 40,000  Level Oakland Center
Sat 11:08:23 AM 38.0444 -119.6483 257° West 417 480 40,000 -590 Level Oakland Center
Sat 11:09:24 AM 38.0214 -119.7931 259° West 419 482 38,800 -2,066 Descending Oakland Center
Sat 11:10:25 AM 37.9956 -119.9392 257° West 422 486 35,800 -3,098 Descending Oakland Center
Sat 11:11:26 AM 37.9697 -120.0875 258° West 428 493 32,500 -3,049 Descending Oakland Center
Sat 11:12:27 AM 37.9408 -120.2378 256° West 435 501 29,600 -2,607 Descending Oakland Center
Sat 11:13:28 AM 37.9158 -120.3803 258° West 419 482 27,200 -2,311 Descending Oakland Center
Sat 11:14:29 AM 37.8917 -120.5189 258° West 403 464 24,900 -2,278 Descending Oakland Center
Sat 11:15:16 AM 37.8667 -120.6333 255° West 393 452 23,100 -2,355 Descending Northern Cal TRACON
Sat 11:16:16 AM 37.8667 -120.7667 270° West 376 433 20,700 -1,750 Descending Northern Cal TRACON
Sat 11:17:16 AM 37.8500 -120.9000 261° West 365 420 19,600 -1,211 Descending Northern Cal TRACON
Sat 11:18:10 AM 37.8167 -121.0000 247° West 368 423 18,400 -1,842 Descending Northern Cal TRACON
Sat 11:19:10 AM 37.7833 -121.1333 252° West 369 425 16,100 -2,158 Descending Northern Cal TRACON
Sat 11:20:04 AM 37.7667 -121.2333 258° West 373 429 14,300 -1,950 Descending Northern Cal TRACON
Sat 11:21:10 AM 37.7333 -121.3500 250° West 341 392 12,200 -1,900 Descending Northern Cal TRACON
Sat 11:22:04 AM 37.7000 -121.4500 247° West 334 384 10,500 -1,211 Descending Northern Cal TRACON
Sat 11:23:04 AM 37.6833 -121.5667 260° West 296 341 9,900 -1,000 Descending Northern Cal TRACON
Sat 11:24:04 AM 37.6500 -121.6500 243° Southwest 282 325 8,500 -1,500 Descending Northern Cal TRACON
Sat 11:25:04 AM 37.6333 -121.7500 258° West 282 325 6,900 -1,474 Descending Northern Cal TRACON
Sat 11:25:58 AM 37.6167 -121.8333 256° West 278 320 5,700 -1,000 Descending Northern Cal TRACON
Sat 11:26:58 AM 37.6000 -121.9167 256° West 257 296 5,000 -950 Descending Northern Cal TRACON
Sat 11:27:58 AM 37.5833 -122.0000 256° West 247 284 3,800 -1,043 Descending Northern Cal TRACON
Sat 11:28:53 AM 37.6000 -122.0667 288° West 202 232 3,000 -835 Descending Northern Cal TRACON
Sat 11:29:53 AM 37.6333 -122.1000 322° Northwest 174 200 2,200 -800 Descending Northern Cal TRACON
Sat 11:30:53 AM 37.6500 -122.1500 293° West 142 163 1,400 -750 Descending Northern Cal TRACON
Sat 11:31:53 AM 37.6833 -122.1833 322° Northwest 132 152 700 -632 Descending Northern Cal TRACON
Sat 11:32:47 AM 37.7000 -122.2167 302° West 130 150 200 -556 Descending Northern Cal TRACON
Sat 11:34:00 AM 37.7167 -122.2167 270° West  Level FlightAware Approximate
Sat 11:41:00 AM 37.7213 -122.2207 270° West  Level Estimated

Login

Don't have an account? Register now (free) for customized features, flight alerts, and more!